Time;durP1;ratioP1;P1;durP2;ratioP2;P2;SDS_P1;SDS_P2;PMS_P1;PMS_P2;Temp;Humidity;BMP_temperature;BMP_pressure;BME280_temperature;BME280_humidity;BME280_pressure;Samples;Min_cycle;Max_cycle;Signal;HPM_P1;HPM_P2
2022/05/04 00:01:36;;;;;;;4.78;4.28;;;;;;;;;;4979953;28;20034;-81
2022/05/04 00:04:01;;;;;;;5.25;4.13;;;;;;;;;;4996270;28;20026;-80
2022/05/04 00:06:27;;;;;;;6.72;4.10;;;;;;;;;;4980341;28;20053;-81
2022/05/04 00:08:52;;;;;;;5.47;3.92;;;;;;;;;;4980352;28;20034;-81
2022/05/04 00:11:18;;;;;;;4.80;3.60;;;;;;;;;;4980236;28;20380;-81
2022/05/04 00:13:43;;;;;;;5.95;3.90;;;;;;;;;;4979873;28;20030;-81
2022/05/04 00:16:09;;;;;;;7.45;3.90;;;;;;;;;;4996867;28;20379;-80
2022/05/04 00:18:34;;;;;;;5.03;3.80;;;;;;;;;;4979673;28;20585;-80
2022/05/04 00:21:00;;;;;;;5.25;3.58;;;;;;;;;;4996255;28;20054;-81
2022/05/04 00:23:25;;;;;;;4.65;3.63;;;;;;;;;;4979830;28;20049;-81
2022/05/04 00:25:51;;;;;;;4.97;3.75;;;;;;;;;;4979135;28;20042;-81
2022/05/04 00:28:16;;;;;;;8.05;4.25;;;;;;;;;;4963694;28;20046;-81
2022/05/04 00:30:42;;;;;;;7.18;4.28;;;;;;;;;;4997686;28;20034;-80
2022/05/04 00:33:07;;;;;;;5.18;3.80;;;;;;;;;;4996968;28;20050;-82
2022/05/04 00:35:33;;;;;;;8.45;4.90;;;;;;;;;;4996298;28;20099;-81
2022/05/04 00:37:59;;;;;;;6.07;4.30;;;;;;;;;;4979450;28;20073;-80
2022/05/04 00:40:24;;;;;;;5.60;4.43;;;;;;;;;;4997110;28;20130;-81
2022/05/04 00:42:49;;;;;;;5.55;4.60;;;;;;;;;;4963638;28;20078;-81
2022/05/04 00:45:15;;;;;;;5.85;4.55;;;;;;;;;;4979211;28;20073;-81
2022/05/04 00:47:40;;;;;;;5.53;4.22;;;;;;;;;;4995739;28;20123;-81
2022/05/04 00:50:07;;;;;;;5.72;4.18;;;;;;;;;;4979381;28;20125;-81
2022/05/04 00:52:34;;;;;;;4.78;4.15;;;;;;;;;;4979885;28;20034;-81
2022/05/04 00:55:00;;;;;;;6.68;4.20;;;;;;;;;;4978738;28;20427;-81
2022/05/04 01:00:09;;;;;;;7.18;4.28;;;;;;;;;;4982536;28;20038;-81
2022/05/04 01:02:38;;;;;;;6.43;4.55;;;;;;;;;;4963325;28;20038;-81
2022/05/04 01:05:05;;;;;;;5.97;4.40;;;;;;;;;;4978513;28;20061;-81
2022/05/04 01:07:31;;;;;;;6.97;4.45;;;;;;;;;;4979084;28;20041;-81
2022/05/04 01:09:56;;;;;;;5.63;3.90;;;;;;;;;;4979355;28;20039;-80
2022/05/04 01:12:22;;;;;;;5.28;3.92;;;;;;;;;;4962868;28;20065;-81
2022/05/04 01:14:48;;;;;;;6.72;3.97;;;;;;;;;;4995298;28;20038;-81
2022/05/04 01:17:13;;;;;;;5.65;3.75;;;;;;;;;;4996065;28;20130;-81
2022/05/04 01:19:38;;;;;;;6.28;4.15;;;;;;;;;;4995551;28;20117;-81
2022/05/04 01:22:04;;;;;;;7.07;4.00;;;;;;;;;;4978522;28;20522;-81
2022/05/04 01:24:29;;;;;;;6.20;3.83;;;;;;;;;;4995396;28;20026;-81
2022/05/04 01:26:55;;;;;;;7.05;4.45;;;;;;;;;;4996198;28;20525;-81
2022/05/04 01:29:20;;;;;;;8.48;4.38;;;;;;;;;;4996051;28;20479;-81
2022/05/04 01:31:47;;;;;;;6.07;4.13;;;;;;;;;;4994923;28;20058;-81
2022/05/04 01:34:12;;;;;;;6.53;4.60;;;;;;;;;;4995487;28;20073;-81
2022/05/04 01:36:38;;;;;;;5.15;4.00;;;;;;;;;;4978425;28;20065;-81
2022/05/04 01:39:03;;;;;;;7.03;4.63;;;;;;;;;;4994806;28;20068;-81
2022/05/04 01:44:13;;;;;;;5.47;3.88;;;;;;;;;;4994516;28;20113;-81
2022/05/04 01:46:38;;;;;;;6.57;4.20;;;;;;;;;;4995604;28;20116;-81
2022/05/04 01:49:04;;;;;;;5.03;4.07;;;;;;;;;;4995578;28;20042;-81
2022/05/04 01:51:29;;;;;;;5.13;3.60;;;;;;;;;;4978286;28;20038;-81
2022/05/04 01:53:55;;;;;;;5.97;3.85;;;;;;;;;;4994568;28;20026;-80
2022/05/04 01:56:20;;;;;;;5.82;4.20;;;;;;;;;;4995755;28;20045;-81
2022/05/04 01:58:45;;;;;;;4.63;3.55;;;;;;;;;;4978298;28;20038;-81
2022/05/04 02:01:11;;;;;;;6.00;3.90;;;;;;;;;;4978491;28;20035;-81
2022/05/04 02:03:36;;;;;;;7.53;3.90;;;;;;;;;;4962190;28;20026;-81
2022/05/04 02:06:02;;;;;;;5.10;3.63;;;;;;;;;;4961329;28;20499;-81
2022/05/04 02:08:28;;;;;;;7.90;3.97;;;;;;;;;;4995492;28;20140;-81
2022/05/04 02:10:53;;;;;;;5.75;3.95;;;;;;;;;;4994668;28;20534;-81
2022/05/04 02:13:19;;;;;;;6.43;3.58;;;;;;;;;;4978249;28;20030;-81
2022/05/04 02:15:44;;;;;;;5.63;3.60;;;;;;;;;;4993838;28;20046;-81
2022/05/04 02:18:09;;;;;;;6.47;3.60;;;;;;;;;;4977815;28;20034;-81
2022/05/04 02:20:35;;;;;;;5.55;3.30;;;;;;;;;;4995350;28;20118;-80
2022/05/04 02:23:01;;;;;;;4.72;3.67;;;;;;;;;;4977767;28;20117;-80
2022/05/04 02:25:27;;;;;;;4.10;3.13;;;;;;;;;;4993449;28;20073;-81
2022/05/04 02:27:52;;;;;;;4.75;3.20;;;;;;;;;;4960854;28;20069;-81
2022/05/04 02:30:18;;;;;;;6.68;3.30;;;;;;;;;;4977574;28;20062;-81
2022/05/04 02:32:43;;;;;;;6.80;3.70;;;;;;;;;;4977678;28;20030;-81
2022/05/04 02:37:55;;;;;;;5.47;3.40;;;;;;;;;;4995003;28;20447;-81
2022/05/04 02:40:20;;;;;;;7.13;3.42;;;;;;;;;;4994927;28;20038;-81
2022/05/04 02:42:46;;;;;;;7.10;3.50;;;;;;;;;;4977363;28;20526;-80
2022/05/04 02:45:12;;;;;;;5.72;3.40;;;;;;;;;;4977246;28;20124;-81
2022/05/04 02:47:38;;;;;;;4.88;3.35;;;;;;;;;;4977215;28;20148;-80
2022/05/04 02:50:05;;;;;;;7.15;3.53;;;;;;;;;;4977840;28;20034;-81
2022/05/04 02:52:30;;;;;;;5.88;3.42;;;;;;;;;;4977777;28;20034;-81
2022/05/04 02:54:55;;;;;;;7.00;3.50;;;;;;;;;;4976621;28;20034;-81
2022/05/04 02:57:21;;;;;;;5.88;3.42;;;;;;;;;;4977139;28;20042;-80
2022/05/04 02:59:46;;;;;;;7.05;3.35;;;;;;;;;;4994593;28;20035;-80
2022/05/04 03:02:27;;;;;;;6.90;3.40;;;;;;;;;;4993089;28;20117;-80
2022/05/04 03:05:00;;;;;;;4.05;3.30;;;;;;;;;;4994130;28;20045;-81
2022/05/04 03:07:26;;;;;;;5.82;3.15;;;;;;;;;;4977803;28;20034;-80
2022/05/04 03:09:55;;;;;;;3.75;2.80;;;;;;;;;;4977374;28;20046;-81
2022/05/04 03:12:20;;;;;;;3.25;2.75;;;;;;;;;;4993777;28;20037;-81
2022/05/04 03:14:45;;;;;;;4.10;3.03;;;;;;;;;;4977008;28;20026;-81
2022/05/04 03:17:11;;;;;;;5.82;2.85;;;;;;;;;;4976846;28;20098;-80
2022/05/04 03:19:36;;;;;;;6.00;2.90;;;;;;;;;;4977268;28;20034;-81
2022/05/04 03:22:02;;;;;;;3.72;2.78;;;;;;;;;;4960716;28;20030;-80
2022/05/04 03:24:27;;;;;;;5.95;2.83;;;;;;;;;;4976578;28;20080;-81
2022/05/04 03:26:53;;;;;;;4.97;2.65;;;;;;;;;;4993512;28;20042;-81
2022/05/04 03:29:19;;;;;;;3.47;2.60;;;;;;;;;;4994292;28;20081;-80
2022/05/04 03:31:44;;;;;;;7.43;3.00;;;;;;;;;;4976964;28;20490;-81
2022/05/04 03:34:10;;;;;;;5.68;3.33;;;;;;;;;;4992689;28;20077;-80
2022/05/04 03:36:35;;;;;;;4.20;3.10;;;;;;;;;;4976979;28;20038;-80
2022/05/04 03:39:01;;;;;;;5.38;2.90;;;;;;;;;;4979093;28;20065;-81
2022/05/04 03:41:27;;;;;;;4.50;2.83;;;;;;;;;;4996907;28;20042;-80
2022/05/04 03:43:52;;;;;;;3.75;2.88;;;;;;;;;;4980674;28;20041;-80
2022/05/04 03:46:23;;;;;;;5.53;3.00;;;;;;;;;;4980023;28;20125;-82
2022/05/04 03:48:50;;;;;;;5.20;2.95;;;;;;;;;;4980803;28;20042;-80
2022/05/04 03:51:19;;;;;;;7.38;3.25;;;;;;;;;;4996250;28;20045;-81
2022/05/04 03:53:44;;;;;;;6.32;3.05;;;;;;;;;;4980155;28;20030;-81
2022/05/04 03:56:10;;;;;;;6.75;3.13;;;;;;;;;;4979892;28;20097;-80
2022/05/04 03:58:37;;;;;;;5.03;2.90;;;;;;;;;;4979906;28;20072;-80
2022/05/04 04:01:03;;;;;;;4.68;2.92;;;;;;;;;;4997875;28;20062;-81
2022/05/04 04:03:29;;;;;;;4.80;3.20;;;;;;;;;;4980223;28;20065;-80
2022/05/04 04:05:54;;;;;;;6.07;2.95;;;;;;;;;;4996950;28;20057;-81
2022/05/04 04:08:20;;;;;;;3.95;2.90;;;;;;;;;;4996214;28;20066;-80
2022/05/04 04:10:45;;;;;;;3.65;2.70;;;;;;;;;;4997344;28;20038;-80
2022/05/04 04:13:11;;;;;;;7.88;3.10;;;;;;;;;;4996723;28;20033;-79
2022/05/04 04:15:36;;;;;;;6.95;3.78;;;;;;;;;;4996752;28;20399;-81
2022/05/04 04:18:02;;;;;;;5.82;3.22;;;;;;;;;;4963824;28;20038;-80
2022/05/04 04:23:11;;;;;;;6.47;4.25;;;;;;;;;;4996097;28;20034;-80
2022/05/04 04:25:37;;;;;;;6.00;3.67;;;;;;;;;;4995471;28;20170;-80
2022/05/04 04:28:03;;;;;;;4.05;3.13;;;;;;;;;;4979732;28;20121;-81
2022/05/04 04:30:28;;;;;;;5.25;3.67;;;;;;;;;;4979972;28;20117;-81
2022/05/04 04:32:54;;;;;;;3.30;2.60;;;;;;;;;;4979689;28;20109;-80
2022/05/04 04:35:19;;;;;;;6.57;4.47;;;;;;;;;;4978981;28;20030;-80
2022/05/04 04:37:54;;;;;;;5.63;3.25;;;;;;;;;;4979630;28;20046;-81
2022/05/04 04:40:19;;;;;;;11.82;3.30;;;;;;;;;;4979186;28;20034;-80
2022/05/04 04:42:44;;;;;;;7.78;3.50;;;;;;;;;;4979386;28;20038;-80
2022/05/04 04:45:10;;;;;;;5.70;3.92;;;;;;;;;;4979035;28;20042;-80
2022/05/04 04:47:35;;;;;;;6.55;3.50;;;;;;;;;;4979523;28;20045;-80
2022/05/04 04:50:01;;;;;;;4.97;3.55;;;;;;;;;;4978657;28;20038;-80
2022/05/04 04:52:26;;;;;;;5.60;3.15;;;;;;;;;;4996453;28;20099;-80
2022/05/04 04:54:52;;;;;;;6.85;3.00;;;;;;;;;;4978739;28;20070;-81
2022/05/04 04:57:17;;;;;;;4.80;3.10;;;;;;;;;;4996390;28;20101;-81
2022/05/04 04:59:43;;;;;;;5.45;3.08;;;;;;;;;;4962643;28;20038;-81
2022/05/04 05:02:09;;;;;;;4.85;3.00;;;;;;;;;;4996474;28;20066;-81
2022/05/04 05:04:35;;;;;;;5.72;3.25;;;;;;;;;;4977953;28;20041;-81
2022/05/04 05:07:00;;;;;;;4.60;3.08;;;;;;;;;;4978956;28;20042;-80
2022/05/04 05:09:26;;;;;;;6.13;3.80;;;;;;;;;;4996067;28;20034;-79
2022/05/04 05:11:51;;;;;;;5.00;3.33;;;;;;;;;;4995630;28;20140;-81
2022/05/04 05:17:01;;;;;;;5.05;2.75;;;;;;;;;;4996526;28;20069;-81
2022/05/04 05:19:26;;;;;;;3.13;2.33;;;;;;;;;;4979245;28;20034;-80
2022/05/04 05:21:52;;;;;;;4.13;2.50;;;;;;;;;;4995117;28;20482;-81
2022/05/04 05:24:17;;;;;;;3.13;2.28;;;;;;;;;;4978359;28;20026;-81
2022/05/04 05:26:43;;;;;;;3.55;2.35;;;;;;;;;;4994848;28;20494;-81
2022/05/04 05:29:08;;;;;;;3.53;2.42;;;;;;;;;;4995119;28;20089;-79
2022/05/04 05:31:33;;;;;;;4.13;2.30;;;;;;;;;;4995889;28;20117;-81
2022/05/04 05:33:59;;;;;;;3.35;2.38;;;;;;;;;;4995562;28;20510;-80
2022/05/04 05:36:24;;;;;;;4.53;2.40;;;;;;;;;;4994642;28;20415;-80
2022/05/04 05:38:50;;;;;;;2.97;2.03;;;;;;;;;;4996068;28;20440;-80
2022/05/04 05:41:15;;;;;;;3.17;2.20;;;;;;;;;;4995864;28;20101;-81
2022/05/04 05:43:41;;;;;;;4.47;2.00;;;;;;;;;;4978372;28;20045;-80
2022/05/04 05:46:06;;;;;;;3.97;2.10;;;;;;;;;;4995100;28;20045;-81
2022/05/04 05:48:31;;;;;;;3.92;2.00;;;;;;;;;;4995524;28;20041;-81
2022/05/04 05:50:57;;;;;;;5.82;2.53;;;;;;;;;;4978750;28;20044;-81
2022/05/04 05:53:22;;;;;;;4.68;2.60;;;;;;;;;;4994524;28;20034;-81
2022/05/04 05:55:49;;;;;;;5.78;4.22;;;;;;;;;;4977681;28;20065;-81
2022/05/04 05:58:14;;;;;;;6.68;5.20;;;;;;;;;;4978243;28;20104;-81
2022/05/04 06:00:40;;;;;;;6.82;4.55;;;;;;;;;;4977940;28;20038;-80
2022/05/04 06:03:05;;;;;;;3.75;3.10;;;;;;;;;;4995272;28;20042;-81
2022/05/04 06:05:31;;;;;;;5.25;3.20;;;;;;;;;;4978205;28;20038;-83
2022/05/04 06:07:56;;;;;;;4.65;3.63;;;;;;;;;;4979598;28;20125;-83
2022/05/04 06:10:22;;;;;;;3.85;1.90;;;;;;;;;;4980101;28;20073;-83
2022/05/04 06:12:47;;;;;;;4.28;2.78;;;;;;;;;;4997100;28;20061;-83
2022/05/04 06:15:14;;;;;;;5.45;3.40;;;;;;;;;;4978945;28;20113;-83
2022/05/04 06:17:40;;;;;;;4.97;2.45;;;;;;;;;;4996769;28;20061;-84
2022/05/04 06:20:06;;;;;;;5.57;2.08;;;;;;;;;;4996009;28;20038;-83
2022/05/04 06:22:31;;;;;;;3.53;2.30;;;;;;;;;;4979249;28;20499;-83
2022/05/04 06:24:57;;;;;;;3.35;2.15;;;;;;;;;;4996671;28;20059;-84
2022/05/04 06:27:22;;;;;;;7.88;2.72;;;;;;;;;;4996755;28;20054;-84
2022/05/04 06:35:16;;;;;;;6.32;2.40;;;;;;;;;;4977935;28;20038;-83
2022/05/04 06:37:42;;;;;;;3.85;2.50;;;;;;;;;;4978936;28;20411;-82
2022/05/04 06:40:08;;;;;;;4.68;2.50;;;;;;;;;;4995426;28;20411;-84
2022/05/04 06:42:33;;;;;;;5.40;2.70;;;;;;;;;;4963552;28;20030;-83
2022/05/04 06:44:59;;;;;;;7.47;3.08;;;;;;;;;;4962746;28;20041;-82
2022/05/04 06:47:24;;;;;;;4.10;2.35;;;;;;;;;;4994938;28;20081;-82
2022/05/04 06:49:50;;;;;;;5.03;2.47;;;;;;;;;;4995332;28;20026;-85
2022/05/04 06:52:15;;;;;;;3.60;2.15;;;;;;;;;;4996383;28;20038;-84
2022/05/04 06:54:42;;;;;;;4.05;2.30;;;;;;;;;;4996191;28;20106;-82
2022/05/04 06:57:08;;;;;;;2.78;2.05;;;;;;;;;;4994390;28;20026;-82
2022/05/04 06:59:33;;;;;;;8.32;2.85;;;;;;;;;;4980447;28;20048;-82
2022/05/04 07:01:58;;;;;;;4.30;2.25;;;;;;;;;;4960734;28;20067;-82
2022/05/04 07:04:24;;;;;;;5.53;2.45;;;;;;;;;;4960185;28;20111;-82
2022/05/04 07:06:50;;;;;;;4.63;2.65;;;;;;;;;;4976439;28;20482;-81
2022/05/04 07:09:15;;;;;;;4.28;2.50;;;;;;;;;;4977343;28;20034;-81
2022/05/04 07:11:40;;;;;;;4.47;2.67;;;;;;;;;;4977087;28;20038;-82
2022/05/04 07:14:06;;;;;;;4.00;2.50;;;;;;;;;;4979512;28;20054;-81
2022/05/04 07:16:31;;;;;;;3.38;2.25;;;;;;;;;;4953964;28;20129;-80
2022/05/04 07:18:57;;;;;;;4.70;2.60;;;;;;;;;;4961242;28;20046;-81
2022/05/04 07:21:22;;;;;;;4.97;2.60;;;;;;;;;;4978811;28;20039;-81
2022/05/04 07:23:48;;;;;;;4.75;2.90;;;;;;;;;;4977545;28;20027;-81
2022/05/04 07:26:13;;;;;;;3.97;2.75;;;;;;;;;;4977454;28;20070;-81
2022/05/04 07:28:38;;;;;;;5.03;2.65;;;;;;;;;;4961256;28;20090;-81
2022/05/04 07:31:04;;;;;;;3.20;2.50;;;;;;;;;;4978672;28;20042;-81
2022/05/04 07:33:29;;;;;;;3.13;2.70;;;;;;;;;;4970686;28;20113;-85
2022/05/04 07:35:55;;;;;;;4.30;2.50;;;;;;;;;;4996534;28;20042;-81
2022/05/04 07:38:20;;;;;;;6.55;3.95;;;;;;;;;;4980676;28;20045;-82
2022/05/04 07:43:30;;;;;;;3.00;2.28;;;;;;;;;;4997357;28;20056;-81
2022/05/04 07:45:55;;;;;;;3.90;2.47;;;;;;;;;;4979802;28;20506;-82
2022/05/04 07:48:21;;;;;;;5.03;2.55;;;;;;;;;;4998165;28;20034;-83
2022/05/04 07:50:46;;;;;;;5.95;2.55;;;;;;;;;;4980551;28;20053;-81
2022/05/04 07:53:12;;;;;;;3.50;2.30;;;;;;;;;;4964076;28;20077;-81
2022/05/04 07:55:37;;;;;;;3.63;2.40;;;;;;;;;;4996597;28;20111;-82
2022/05/04 07:58:03;;;;;;;3.97;2.45;;;;;;;;;;4980545;28;20037;-82
2022/05/04 08:05:56;;;;;;;3.65;2.42;;;;;;;;;;4996426;28;20407;-82
2022/05/04 08:08:22;;;;;;;4.95;2.42;;;;;;;;;;4963986;28;20469;-83
2022/05/04 08:10:47;;;;;;;3.38;2.35;;;;;;;;;;4976803;28;20037;-83
2022/05/04 08:13:13;;;;;;;3.45;2.55;;;;;;;;;;4960634;28;20388;-83
2022/05/04 08:15:38;;;;;;;5.53;2.45;;;;;;;;;;4976215;28;20026;-84
2022/05/04 08:18:04;;;;;;;4.80;2.70;;;;;;;;;;4975609;28;20470;-82
2022/05/04 08:20:30;;;;;;;3.58;2.58;;;;;;;;;;4976884;28;20041;-82
2022/05/04 08:22:57;;;;;;;5.75;2.50;;;;;;;;;;4959654;28;20121;-82
2022/05/04 08:25:23;;;;;;;4.38;2.40;;;;;;;;;;4944640;28;20038;-83
2022/05/04 08:27:48;;;;;;;6.15;2.70;;;;;;;;;;4986628;28;20096;-82
2022/05/04 08:30:14;;;;;;;3.80;2.38;;;;;;;;;;4989774;28;20034;-83
2022/05/04 08:32:44;;;;;;;4.32;2.70;;;;;;;;;;4977742;28;20109;-83
2022/05/04 08:35:12;;;;;;;4.30;2.55;;;;;;;;;;4972381;28;20065;-83
2022/05/04 08:37:37;;;;;;;5.30;2.70;;;;;;;;;;4962836;28;20432;-84
2022/05/04 08:40:03;;;;;;;5.47;2.95;;;;;;;;;;4996046;28;20073;-82
2022/05/04 08:42:29;;;;;;;9.65;2.90;;;;;;;;;;4995969;28;20113;-83
2022/05/04 08:44:57;;;;;;;6.45;2.63;;;;;;;;;;4996385;28;20027;-83
2022/05/04 08:47:22;;;;;;;4.85;2.85;;;;;;;;;;4979422;28;20034;-83
2022/05/04 08:49:48;;;;;;;4.25;2.90;;;;;;;;;;4979589;28;20042;-82
2022/05/04 08:52:14;;;;;;;6.00;2.80;;;;;;;;;;4978975;28;20049;-82
2022/05/04 08:54:40;;;;;;;3.60;2.75;;;;;;;;;;4945841;28;20030;-84
2022/05/04 08:57:06;;;;;;;5.80;2.80;;;;;;;;;;4978978;28;20037;-83
2022/05/04 08:59:31;;;;;;;6.28;2.85;;;;;;;;;;4976985;28;20035;-82
2022/05/04 09:01:57;;;;;;;7.53;3.22;;;;;;;;;;4977831;28;20041;-83
2022/05/04 09:04:22;;;;;;;4.32;3.00;;;;;;;;;;4976007;28;20121;-83
2022/05/04 09:06:49;;;;;;;3.85;2.85;;;;;;;;;;4976637;28;20031;-83
2022/05/04 09:09:14;;;;;;;3.55;2.65;;;;;;;;;;4976812;28;20026;-83
2022/05/04 09:11:44;;;;;;;3.80;2.67;;;;;;;;;;4959855;28;20495;-83
2022/05/04 09:14:11;;;;;;;3.28;2.40;;;;;;;;;;4975979;28;20070;-83
2022/05/04 09:16:37;;;;;;;5.18;2.70;;;;;;;;;;4959893;28;20049;-83
2022/05/04 09:19:06;;;;;;;4.82;2.60;;;;;;;;;;4976062;28;20034;-83
2022/05/04 09:21:32;;;;;;;4.60;2.42;;;;;;;;;;4976024;28;20034;-83
2022/05/04 09:23:57;;;;;;;3.28;2.28;;;;;;;;;;4959531;28;20383;-82
2022/05/04 09:26:23;;;;;;;4.65;2.40;;;;;;;;;;4975754;28;20034;-84
2022/05/04 09:28:50;;;;;;;3.38;2.20;;;;;;;;;;4960605;28;20030;-83
2022/05/04 09:31:18;;;;;;;3.70;2.38;;;;;;;;;;4984926;28;20042;-83
2022/05/04 09:33:43;;;;;;;10.18;2.28;;;;;;;;;;4962949;28;20495;-83
2022/05/04 09:36:09;;;;;;;13.85;2.55;;;;;;;;;;4995211;28;20039;-83
2022/05/04 09:46:49;;;;;;;6.55;2.95;;;;;;;;;;4997154;28;20053;-87
2022/05/04 09:49:16;;;;;;;4.65;2.53;;;;;;;;;;4996501;28;20042;-84
2022/05/04 09:51:49;;;;;;;3.47;2.58;;;;;;;;;;4979931;28;20038;-84
2022/05/04 09:54:20;;;;;;;4.35;2.80;;;;;;;;;;4979344;28;20483;-83
2022/05/04 09:56:53;;;;;;;3.95;2.75;;;;;;;;;;4979435;28;20065;-86
2022/05/04 09:59:23;;;;;;;4.20;2.83;;;;;;;;;;4996949;28;20038;-83
2022/05/04 10:01:49;;;;;;;4.97;2.92;;;;;;;;;;4997528;28;20042;-86
2022/05/04 10:04:15;;;;;;;6.05;2.70;;;;;;;;;;4961434;28;20030;-85
2022/05/04 10:06:40;;;;;;;4.45;2.78;;;;;;;;;;4981450;28;20040;-83
2022/05/04 10:09:06;;;;;;;3.95;2.80;;;;;;;;;;4996339;28;20038;-83
2022/05/04 10:11:35;;;;;;;4.20;2.83;;;;;;;;;;4993852;28;20395;-82
2022/05/04 10:14:08;;;;;;;5.13;2.78;;;;;;;;;;4994802;28;20088;-82
2022/05/04 10:16:41;;;;;;;4.50;3.28;;;;;;;;;;4994778;28;20038;-82
2022/05/04 10:19:11;;;;;;;3.67;2.90;;;;;;;;;;4993340;28;20031;-83
2022/05/04 10:21:36;;;;;;;3.45;2.55;;;;;;;;;;4994599;28;20681;-83
2022/05/04 10:24:06;;;;;;;4.82;2.35;;;;;;;;;;4995515;28;20046;-85
2022/05/04 10:26:35;;;;;;;3.33;2.30;;;;;;;;;;4963254;28;20064;-84
2022/05/04 10:31:53;;;;;;;3.40;2.10;;;;;;;;;;4994323;28;20126;-85
2022/05/04 10:34:19;;;;;;;3.30;2.08;;;;;;;;;;4993598;28;20376;-84
2022/05/04 10:36:47;;;;;;;4.10;2.10;;;;;;;;;;4993717;28;20034;-84
2022/05/04 10:39:19;;;;;;;3.33;2.40;;;;;;;;;;5020551;23;20052;-85
2022/05/04 10:41:44;;;;;;;2.72;2.00;;;;;;;;;;4999140;28;20034;-85
2022/05/04 10:44:10;;;;;;;2.35;2.00;;;;;;;;;;5015003;28;20084;-84
2022/05/04 10:46:40;;;;;;;2.55;1.90;;;;;;;;;;4998271;28;20438;-86
2022/05/04 10:49:08;;;;;;;4.97;2.03;;;;;;;;;;4962566;28;20607;-86
2022/05/04 10:51:34;;;;;;;4.95;2.10;;;;;;;;;;4996353;28;20513;-86
2022/05/04 10:54:12;;;;;;;3.15;2.00;;;;;;;;;;4977916;28;20045;-89
2022/05/04 10:56:45;;;;;;;3.60;1.80;;;;;;;;;;4948327;28;20388;-86
2022/05/04 10:59:11;;;;;;;3.35;1.95;;;;;;;;;;4978058;28;20034;-87
2022/05/04 11:01:40;;;;;;;4.05;1.90;;;;;;;;;;4961024;28;20046;-87
2022/05/04 11:04:15;;;;;;;4.20;1.85;;;;;;;;;;4976358;28;20077;-87
2022/05/04 11:06:45;;;;;;;3.25;2.00;;;;;;;;;;4995048;28;20509;-86
2022/05/04 11:09:11;;;;;;;2.55;2.05;;;;;;;;;;4994190;28;20042;-86
2022/05/04 11:11:38;;;;;;;3.42;2.20;;;;;;;;;;4994514;28;20041;-87
2022/05/04 11:14:04;;;;;;;3.00;1.95;;;;;;;;;;4960610;28;20071;-87
2022/05/04 11:16:30;;;;;;;3.75;2.30;;;;;;;;;;4960590;28;20034;-85
2022/05/04 11:18:57;;;;;;;3.17;2.25;;;;;;;;;;4977380;28;20031;-87
2022/05/04 11:21:23;;;;;;;3.60;2.20;;;;;;;;;;4945035;28;20085;-87
2022/05/04 11:23:52;;;;;;;4.28;2.47;;;;;;;;;;4959827;28;20034;-86
2022/05/04 11:26:22;;;;;;;3.15;2.45;;;;;;;;;;4943467;28;20042;-87
2022/05/04 11:28:48;;;;;;;5.70;2.60;;;;;;;;;;4976922;28;20046;-88
2022/05/04 11:31:14;;;;;;;3.35;2.80;;;;;;;;;;4949257;28;20030;-87
2022/05/04 11:33:41;;;;;;;4.15;2.40;;;;;;;;;;4977293;28;20078;-88
2022/05/04 11:36:06;;;;;;;3.40;2.38;;;;;;;;;;4977607;28;20041;-87
2022/05/04 11:38:31;;;;;;;6.32;2.67;;;;;;;;;;4961357;28;20069;-88
2022/05/04 11:40:57;;;;;;;3.67;2.40;;;;;;;;;;4978122;28;20069;-87
2022/05/04 11:43:25;;;;;;;3.97;2.28;;;;;;;;;;4961638;28;20125;-87
2022/05/04 11:45:50;;;;;;;6.82;2.50;;;;;;;;;;4994483;28;20130;-88
2022/05/04 11:48:18;;;;;;;2.88;2.10;;;;;;;;;;4961569;28;20078;-89
2022/05/04 11:50:44;;;;;;;3.08;2.10;;;;;;;;;;4963118;28;20045;-86
2022/05/04 11:53:10;;;;;;;3.58;2.10;;;;;;;;;;4982037;28;20025;-86
2022/05/04 11:55:36;;;;;;;3.47;2.25;;;;;;;;;;4977393;28;20038;-88
2022/05/04 11:58:02;;;;;;;3.65;2.08;;;;;;;;;;4945215;28;20054;-86
2022/05/04 12:00:27;;;;;;;3.20;2.15;;;;;;;;;;4997036;28;20041;-87
2022/05/04 12:02:53;;;;;;;7.13;2.10;;;;;;;;;;4964122;28;20038;-87
2022/05/04 12:05:18;;;;;;;4.13;2.20;;;;;;;;;;4964601;28;20077;-82
2022/05/04 12:07:44;;;;;;;3.17;2.10;;;;;;;;;;4981222;28;20034;-86
2022/05/04 12:10:10;;;;;;;4.28;2.50;;;;;;;;;;4980868;28;20526;-87
2022/05/04 12:12:36;;;;;;;3.65;2.30;;;;;;;;;;4980698;28;20035;-87
2022/05/04 12:15:03;;;;;;;3.75;2.15;;;;;;;;;;4947468;28;20042;-86
2022/05/04 12:17:28;;;;;;;4.55;2.40;;;;;;;;;;4965750;28;20030;-88
2022/05/04 12:19:54;;;;;;;3.92;2.33;;;;;;;;;;4964833;28;20038;-87
2022/05/04 12:22:19;;;;;;;2.58;2.00;;;;;;;;;;4948679;28;22001;-85
2022/05/04 12:24:45;;;;;;;2.63;2.20;;;;;;;;;;4997158;28;20130;-86
2022/05/04 12:27:11;;;;;;;3.25;2.03;;;;;;;;;;4980859;28;20090;-86
2022/05/04 12:35:05;;;;;;;2.83;2.08;;;;;;;;;;4982159;28;20037;-86
2022/05/04 12:37:32;;;;;;;2.63;1.80;;;;;;;;;;4980649;28;20030;-85
2022/05/04 12:40:01;;;;;;;3.83;2.13;;;;;;;;;;4963914;28;20041;-86
2022/05/04 12:42:27;;;;;;;2.35;1.63;;;;;;;;;;4963935;28;20111;-85
2022/05/04 12:44:53;;;;;;;2.45;1.77;;;;;;;;;;4947684;28;20092;-86
2022/05/04 12:47:20;;;;;;;2.42;1.80;;;;;;;;;;4964179;28;20494;-85
2022/05/04 12:49:45;;;;;;;2.25;1.77;;;;;;;;;;4954264;28;20053;-87
2022/05/04 12:52:11;;;;;;;2.63;1.75;;;;;;;;;;4964437;28;20046;-86
2022/05/04 12:54:37;;;;;;;3.95;1.67;;;;;;;;;;4962988;28;20052;-86
2022/05/04 12:57:03;;;;;;;2.65;1.70;;;;;;;;;;4963804;28;20042;-88
2022/05/04 12:59:29;;;;;;;2.20;1.60;;;;;;;;;;4964047;28;20027;-87
2022/05/04 13:01:55;;;;;;;2.97;1.55;;;;;;;;;;4980356;28;20069;-87
2022/05/04 13:04:20;;;;;;;3.03;1.80;;;;;;;;;;4979413;28;20398;-88
2022/05/04 13:06:46;;;;;;;2.25;1.77;;;;;;;;;;4963959;28;20042;-87
2022/05/04 13:09:11;;;;;;;2.63;1.70;;;;;;;;;;4947533;28;20517;-86
2022/05/04 13:11:37;;;;;;;2.65;1.40;;;;;;;;;;4979635;28;20042;-84
2022/05/04 13:14:03;;;;;;;2.97;1.58;;;;;;;;;;4980048;28;20061;-83
2022/05/04 13:16:28;;;;;;;2.63;1.38;;;;;;;;;;4994631;28;20039;-87
2022/05/04 13:18:54;;;;;;;4.57;1.40;;;;;;;;;;4981604;28;20042;-87
2022/05/04 13:21:21;;;;;;;1.50;1.40;;;;;;;;;;4988306;28;20445;-86
2022/05/04 13:23:47;;;;;;;2.83;1.50;;;;;;;;;;4983536;28;20041;-87
2022/05/04 13:26:14;;;;;;;3.70;1.40;;;;;;;;;;4999630;28;20112;-88
2022/05/04 13:28:39;;;;;;;10.23;1.60;;;;;;;;;;4967024;28;20058;-88
2022/05/04 13:31:05;;;;;;;6.25;1.52;;;;;;;;;;4965631;28;20392;-87
2022/05/04 13:33:31;;;;;;;4.45;1.30;;;;;;;;;;4984417;28;20424;-86
2022/05/04 13:36:01;;;;;;;1.98;1.42;;;;;;;;;;4999643;28;20038;-86
2022/05/04 13:38:26;;;;;;;1.83;1.30;;;;;;;;;;4983352;28;20070;-88
2022/05/04 13:40:53;;;;;;;1.83;1.48;;;;;;;;;;4966166;28;20049;-88
2022/05/04 13:43:19;;;;;;;2.03;1.55;;;;;;;;;;4947649;28;20034;-86
2022/05/04 13:45:45;;;;;;;3.60;1.40;;;;;;;;;;4971244;28;20038;-87
2022/05/04 13:48:11;;;;;;;4.25;1.50;;;;;;;;;;4998986;28;20045;-86
2022/05/04 13:53:21;;;;;;;2.65;1.40;;;;;;;;;;4982236;28;20027;-88
2022/05/04 13:55:50;;;;;;;1.40;1.30;;;;;;;;;;4963165;28;20061;-86
2022/05/04 13:58:16;;;;;;;4.75;1.50;;;;;;;;;;4980217;28;20042;-88
2022/05/04 14:00:44;;;;;;;2.53;1.50;;;;;;;;;;4964842;28;20463;-87
2022/05/04 14:03:09;;;;;;;2.85;1.58;;;;;;;;;;4998156;28;20173;-88
2022/05/04 14:05:36;;;;;;;3.78;1.55;;;;;;;;;;4980446;28;20027;-88
2022/05/04 14:08:01;;;;;;;2.35;1.50;;;;;;;;;;4979370;28;20067;-86
2022/05/04 14:10:28;;;;;;;3.80;1.42;;;;;;;;;;4963683;28;20105;-87
2022/05/04 14:12:54;;;;;;;4.32;1.42;;;;;;;;;;4948019;28;20117;-86
2022/05/04 14:15:19;;;;;;;2.72;1.80;;;;;;;;;;4946867;28;20032;-87
2022/05/04 14:17:45;;;;;;;2.85;1.50;;;;;;;;;;4978693;28;20491;-87
2022/05/04 14:20:10;;;;;;;2.97;1.40;;;;;;;;;;4979236;28;20040;-87
2022/05/04 14:22:35;;;;;;;4.22;1.40;;;;;;;;;;4979478;28;20161;-87
2022/05/04 14:25:01;;;;;;;3.72;1.70;;;;;;;;;;4979072;28;20038;-86
2022/05/04 14:27:27;;;;;;;4.65;1.63;;;;;;;;;;4962580;28;20189;-87
2022/05/04 14:29:52;;;;;;;4.20;1.55;;;;;;;;;;4963359;28;20491;-87
2022/05/04 14:32:18;;;;;;;2.67;1.60;;;;;;;;;;4964073;28;20033;-87
2022/05/04 14:34:43;;;;;;;3.45;1.55;;;;;;;;;;4997863;28;20098;-87
2022/05/04 14:37:09;;;;;;;2.58;1.60;;;;;;;;;;4981427;28;20027;-87
2022/05/04 14:39:34;;;;;;;1.83;1.42;;;;;;;;;;4981855;28;20487;-86
2022/05/04 14:42:01;;;;;;;3.63;1.80;;;;;;;;;;4981060;28;20042;-87
2022/05/04 14:44:26;;;;;;;5.60;1.80;;;;;;;;;;4961551;28;20100;-89
2022/05/04 14:46:52;;;;;;;2.50;1.73;;;;;;;;;;4980724;28;20034;-85
2022/05/04 14:49:17;;;;;;;2.72;1.83;;;;;;;;;;4978165;28;20105;-86
2022/05/04 14:51:43;;;;;;;4.90;1.70;;;;;;;;;;4979210;28;20458;-85
2022/05/04 14:54:08;;;;;;;4.50;1.70;;;;;;;;;;4963321;28;20042;-84
2022/05/04 14:56:33;;;;;;;3.05;1.92;;;;;;;;;;4947924;28;20041;-85
2022/05/04 14:58:59;;;;;;;2.28;1.50;;;;;;;;;;4980133;28;20027;-84
2022/05/04 15:01:24;;;;;;;4.40;2.00;;;;;;;;;;4963547;28;20061;-86
2022/05/04 15:06:34;;;;;;;5.18;2.08;;;;;;;;;;4982887;28;20396;-85
2022/05/04 15:08:59;;;;;;;6.13;1.70;;;;;;;;;;4963595;28;20037;-87
2022/05/04 15:11:25;;;;;;;2.88;1.90;;;;;;;;;;4962841;28;20026;-83
2022/05/04 15:13:51;;;;;;;3.72;1.80;;;;;;;;;;4995752;28;20503;-86
2022/05/04 15:16:16;;;;;;;2.50;1.63;;;;;;;;;;4961495;28;20524;-84
2022/05/04 15:18:42;;;;;;;3.53;1.95;;;;;;;;;;4961408;28;20026;-86
2022/05/04 15:21:07;;;;;;;3.90;1.85;;;;;;;;;;4977636;28;20495;-86
2022/05/04 15:23:33;;;;;;;3.10;2.30;;;;;;;;;;4962062;28;20117;-85
2022/05/04 15:25:58;;;;;;;4.30;1.98;;;;;;;;;;4945510;28;20038;-88